Time,TemperatureF,DewpointF,PressureIn,WindDirection,WindDirectionDegrees,WindSpeedMPH,WindSpeedGustMPH,Humidity,HourlyPrecipIn,Conditions,Clouds,dailyrainin,SoftwareType,DateUTC
2013-03-20 00:03:00,53.5,52.1,29.56,SW,214,8.1,8.1,95,0.00,CLR,,0.00,WeatherDisplay:10.37,2013-03-19 23:03:00,
2013-03-20 00:08:00,53.5,52.1,29.55,SW,220,8.1,8.1,95,0.00,CLR,,0.00,WeatherDisplay:10.37,2013-03-19 23:08:00,
2013-03-20 00:13:00,53.5,52.1,29.56,SW,226,9.2,9.2,95,0.00,CLR,,0.00,WeatherDisplay:10.37,2013-03-19 23:13:00,
2013-03-20 00:18:00,53.5,52.1,29.56,SSW,210,8.1,8.1,95,0.00,CLR,,0.00,WeatherDisplay:10.37,2013-03-19 23:18:00,
2013-03-20 00:23:00,53.6,52.2,29.56,SW,214,9.2,9.2,95,0.00,CLR,,0.00,WeatherDisplay:10.37,2013-03-19 23:23:00,
2013-03-20 00:28:00,53.6,52.2,29.56,SSE,167,9.2,9.2,95,0.00,CLR,,0.00,WeatherDisplay:10.37,2013-03-19 23:28:00,
2013-03-20 00:33:00,53.6,52.2,29.56,South,187,10.4,10.4,95,0.00,CLR,,0.00,WeatherDisplay:10.37,2013-03-19 23:33:00,
2013-03-20 00:38:00,53.4,52.0,29.56,SSW,211,11.5,11.5,95,0.00,CLR,,0.00,WeatherDisplay:10.37,2013-03-19 23:38:00,
2013-03-20 00:43:00,53.3,51.9,29.56,SW,216,9.0,9.0,95,0.00,CLR,,0.00,WeatherDisplay:10.37,2013-03-19 23:43:00,
2013-03-20 00:48:00,53.3,51.9,29.56,SW,226,10.4,10.4,95,0.00,CLR,,0.00,WeatherDisplay:10.37,2013-03-19 23:48:00,
2013-03-20 00:53:00,53.4,52.0,29.55,SW,228,8.1,8.1,95,0.00,CLR,,0.00,WeatherDisplay:10.37,2013-03-19 23:53:00,
2013-03-20 00:58:00,53.7,52.3,29.55,SW,233,9.2,9.2,95,0.00,CLR,,0.00,WeatherDisplay:10.37,2013-03-19 23:58:00,
2013-03-20 01:03:00,53.7,52.3,29.54,SW,225,5.8,5.8,95,0.00,CLR,,0.00,WeatherDisplay:10.37,2013-03-20 00:03:00,
2013-03-20 01:08:00,53.7,52.3,29.55,SW,220,8.1,8.1,95,0.00,CLR,,0.00,WeatherDisplay:10.37,2013-03-20 00:08:00,
2013-03-20 01:13:00,53.9,52.5,29.55,SW,218,10.4,10.4,95,0.00,CLR,,0.00,WeatherDisplay:10.37,2013-03-20 00:13:00,
2013-03-20 01:18:00,53.8,52.4,29.55,South,189,6.9,6.9,95,0.00,CLR,,0.00,WeatherDisplay:10.37,2013-03-20 00:18:00,
2013-03-20 01:23:00,53.9,52.5,29.55,SSW,197,11.0,11.0,95,0.00,CLR,,0.00,WeatherDisplay:10.37,2013-03-20 00:23:00,
2013-03-20 01:28:00,53.9,52.5,29.55,SSW,211,10.4,10.4,95,0.00,CLR,,0.00,WeatherDisplay:10.37,2013-03-20 00:28:00,
2013-03-20 01:33:00,53.8,52.4,29.55,SSW,199,8.1,8.1,95,0.00,CLR,,0.00,WeatherDisplay:10.37,2013-03-20 00:33:00,
2013-03-20 01:38:00,53.8,52.4,29.54,SSW,204,9.2,9.2,95,0.00,CLR,,0.00,WeatherDisplay:10.37,2013-03-20 00:38:00,
2013-03-20 01:43:00,53.7,52.3,29.54,SW,218,8.0,8.0,95,0.00,CLR,,0.00,WeatherDisplay:10.37,2013-03-20 00:43:00,
2013-03-20 01:48:00,53.7,52.3,29.54,SW,222,11.5,11.5,95,0.00,CLR,,0.00,WeatherDisplay:10.37,2013-03-20 00:48:00,
2013-03-20 01:53:00,53.7,52.3,29.54,SW,222,11.5,11.5,95,0.00,CLR,,0.00,WeatherDisplay:10.37,2013-03-20 00:53:00,
2013-03-20 01:58:00,53.7,52.3,29.54,SW,226,11.5,11.5,95,0.00,CLR,,0.00,WeatherDisplay:10.37,2013-03-20 00:58:00,
2013-03-20 02:03:00,53.8,52.4,29.54,SSW,205,11.5,11.5,95,0.00,CLR,,0.00,WeatherDisplay:10.37,2013-03-20 01:03:00,
2013-03-20 02:08:00,53.7,52.3,29.54,WSW,238,10.4,10.4,95,0.00,CLR,,0.00,WeatherDisplay:10.37,2013-03-20 01:08:00,
2013-03-20 02:13:00,53.8,52.4,29.54,SW,224,10.4,10.4,95,0.00,CLR,,0.00,WeatherDisplay:10.37,2013-03-20 01:13:00,
2013-03-20 02:18:00,53.8,52.4,29.54,SSW,202,9.2,9.2,95,0.00,CLR,,0.00,WeatherDisplay:10.37,2013-03-20 01:18:00,
2013-03-20 02:23:00,53.8,52.4,29.54,SSW,204,10.4,10.4,95,0.00,CLR,,0.00,WeatherDisplay:10.37,2013-03-20 01:23:00,
2013-03-20 02:28:00,53.8,52.4,29.54,SW,221,11.5,11.5,95,0.00,CLR,,0.00,WeatherDisplay:10.37,2013-03-20 01:28:00,
2013-03-20 02:33:00,53.8,52.4,29.53,SW,233,11.5,11.5,95,0.00,CLR,,0.00,WeatherDisplay:10.37,2013-03-20 01:33:00,
2013-03-20 02:38:00,53.8,52.4,29.53,WSW,237,11.5,11.5,95,0.00,CLR,,0.00,WeatherDisplay:10.37,2013-03-20 01:38:00,
2013-03-20 02:43:00,53.8,52.4,29.53,SW,234,13.8,13.8,95,0.00,CLR,,0.00,WeatherDisplay:10.37,2013-03-20 01:43:00,
2013-03-20 02:48:00,53.8,52.4,29.53,SW,228,14.0,14.0,95,0.00,CLR,,0.00,WeatherDisplay:10.37,2013-03-20 01:48:00,
2013-03-20 02:53:00,53.8,52.4,29.53,SW,233,13.8,13.8,95,0.00,CLR,,0.00,WeatherDisplay:10.37,2013-03-20 01:53:00,
2013-03-20 02:58:00,53.9,52.5,29.52,SW,225,13.8,13.8,95,0.00,CLR,,0.00,WeatherDisplay:10.37,2013-03-20 01:58:00,
2013-03-20 03:04:00,53.9,52.5,29.52,WSW,243,11.5,11.5,95,0.00,CLR,,0.00,WeatherDisplay:10.37,2013-03-20 02:04:00,
2013-03-20 03:09:00,53.9,52.5,29.52,SW,228,13.8,13.8,95,0.00,CLR,,0.00,WeatherDisplay:10.37,2013-03-20 02:09:00,
2013-03-20 03:14:00,54.0,52.6,29.53,SW,226,12.7,12.7,95,0.00,CLR,,0.00,WeatherDisplay:10.37,2013-03-20 02:14:00,
2013-03-20 03:19:00,54.0,52.6,29.53,WSW,251,13.8,13.8,95,0.00,CLR,,0.00,WeatherDisplay:10.37,2013-03-20 02:19:00,
2013-03-20 03:24:00,54.0,52.6,29.53,SW,233,16.1,16.1,95,0.00,CLR,,0.00,WeatherDisplay:10.37,2013-03-20 02:24:00,
2013-03-20 03:29:00,54.1,52.7,29.52,SW,235,15.0,15.0,95,0.00,CLR,,0.00,WeatherDisplay:10.37,2013-03-20 02:29:00,
2013-03-20 03:34:00,54.1,52.7,29.52,WSW,249,15.0,15.0,95,0.00,CLR,,0.00,WeatherDisplay:10.37,2013-03-20 02:34:00,
2013-03-20 03:39:00,54.1,52.7,29.52,SW,228,15.0,15.0,95,0.00,CLR,,0.00,WeatherDisplay:10.37,2013-03-20 02:39:00,
2013-03-20 03:44:00,54.2,52.8,29.52,WSW,241,11.5,11.5,95,0.00,CLR,,0.00,WeatherDisplay:10.37,2013-03-20 02:44:00,
2013-03-20 03:49:00,54.2,53.1,29.52,WSW,239,16.1,16.1,96,0.00,CLR,,0.00,WeatherDisplay:10.37,2013-03-20 02:49:00,
2013-03-20 03:54:00,54.1,53.0,29.52,WSW,256,11.5,11.5,96,0.00,CLR,,0.00,WeatherDisplay:10.37,2013-03-20 02:54:00,
2013-03-20 03:59:00,54.1,53.0,29.51,West,260,13.0,13.0,96,0.00,CLR,,0.00,WeatherDisplay:10.37,2013-03-20 02:59:00,
2013-03-20 04:04:00,54.1,53.0,29.51,WSW,249,12.7,12.7,96,0.00,CLR,,0.00,WeatherDisplay:10.37,2013-03-20 03:04:00,
2013-03-20 04:09:00,54.1,53.0,29.51,West,261,13.8,13.8,96,0.00,CLR,,0.00,WeatherDisplay:10.37,2013-03-20 03:09:00,
2013-03-20 04:14:00,54.1,53.0,29.52,SW,235,12.7,12.7,96,0.00,CLR,,0.00,WeatherDisplay:10.37,2013-03-20 03:14:00,
2013-03-20 04:19:00,54.1,53.0,29.52,SW,218,13.8,13.8,96,0.00,CLR,,0.00,WeatherDisplay:10.37,2013-03-20 03:19:00,
2013-03-20 04:24:00,54.1,53.0,29.52,SW,226,12.7,12.7,96,0.00,CLR,,0.00,WeatherDisplay:10.37,2013-03-20 03:24:00,
2013-03-20 04:29:00,54.1,53.0,29.52,SW,221,13.8,13.8,96,0.00,CLR,,0.00,WeatherDisplay:10.37,2013-03-20 03:29:00,
2013-03-20 04:34:00,54.2,53.1,29.52,SW,221,15.0,15.0,96,0.00,CLR,,0.00,WeatherDisplay:10.37,2013-03-20 03:34:00,
2013-03-20 04:39:00,54.3,53.2,29.52,SSW,209,16.1,16.1,96,0.00,CLR,,0.00,WeatherDisplay:10.37,2013-03-20 03:39:00,
2013-03-20 04:44:00,54.3,53.2,29.53,SSW,208,17.3,17.3,96,0.00,CLR,,0.00,WeatherDisplay:10.37,2013-03-20 03:44:00,
2013-03-20 04:49:00,54.3,53.2,29.53,SW,215,15.0,15.0,96,0.00,CLR,,0.00,WeatherDisplay:10.37,2013-03-20 03:49:00,
2013-03-20 04:54:00,54.1,53.0,29.53,SW,219,15.0,15.0,96,0.00,CLR,,0.00,WeatherDisplay:10.37,2013-03-20 03:54:00,
2013-03-20 04:59:00,54.1,53.0,29.53,SW,227,16.1,16.1,96,0.00,CLR,,0.00,WeatherDisplay:10.37,2013-03-20 03:59:00,
2013-03-20 05:00:00,54.1,52.7,29.53,WSW,245,16.0,16.0,95,0.00,CLR,,0.00,WeatherDisplay:10.37,2013-03-20 04:00:00,
2013-03-20 05:01:00,54.1,52.7,29.53,SW,229,15.0,15.0,95,0.00,CLR,,0.00,WeatherDisplay:10.37,2013-03-20 04:01:00,
2013-03-20 05:06:00,53.9,52.5,29.52,WSW,244,15.0,15.0,95,0.00,CLR,,0.00,WeatherDisplay:10.37,2013-03-20 04:06:00,
2013-03-20 05:11:00,53.7,52.6,29.52,SW,235,19.6,19.6,96,0.00,CLR,,0.00,WeatherDisplay:10.37,2013-03-20 04:11:00,
2013-03-20 05:16:00,53.5,52.4,29.52,WSW,237,16.1,16.1,96,0.00,CLR,,0.00,WeatherDisplay:10.37,2013-03-20 04:16:00,
2013-03-20 05:21:00,53.5,52.4,29.53,SW,233,16.1,16.1,96,0.00,CLR,,0.00,WeatherDisplay:10.37,2013-03-20 04:21:00,
2013-03-20 05:26:00,53.5,52.4,29.53,WSW,239,18.4,18.4,96,0.00,CLR,,0.00,WeatherDisplay:10.37,2013-03-20 04:26:00,
2013-03-20 05:31:00,53.6,52.5,29.53,SW,233,18.4,18.4,96,0.00,CLR,,0.00,WeatherDisplay:10.37,2013-03-20 04:31:00,
2013-03-20 05:36:00,53.6,52.5,29.53,WSW,244,16.1,16.1,96,0.00,CLR,,0.00,WeatherDisplay:10.37,2013-03-20 04:36:00,
2013-03-20 05:41:00,53.7,52.6,29.53,WSW,243,15.0,15.0,96,0.00,CLR,,0.00,WeatherDisplay:10.37,2013-03-20 04:41:00,
2013-03-20 05:46:00,53.7,52.6,29.53,WSW,250,13.8,13.8,96,0.00,CLR,,0.00,WeatherDisplay:10.37,2013-03-20 04:46:00,
2013-03-20 05:51:00,53.7,52.6,29.53,SW,236,13.8,13.8,96,0.00,CLR,,0.00,WeatherDisplay:10.37,2013-03-20 04:51:00,
2013-03-20 05:57:00,53.8,52.7,29.53,WSW,253,11.5,11.5,96,0.00,CLR,,0.00,WeatherDisplay:10.37,2013-03-20 04:57:00,
2013-03-20 06:02:00,53.8,52.7,29.54,WSW,247,12.7,12.7,96,0.00,CLR,,0.00,WeatherDisplay:10.37,2013-03-20 05:02:00,
2013-03-20 06:07:00,53.9,52.8,29.54,West,270,13.8,13.8,96,0.00,CLR,,0.00,WeatherDisplay:10.37,2013-03-20 05:07:00,
2013-03-20 06:12:00,53.9,52.8,29.54,WSW,247,11.5,11.5,96,0.00,CLR,,0.00,WeatherDisplay:10.37,2013-03-20 05:12:00,
2013-03-20 06:17:00,54.0,52.9,29.54,WSW,251,13.8,13.8,96,0.00,CLR,,0.00,WeatherDisplay:10.37,2013-03-20 05:17:00,
2013-03-20 06:22:00,54.0,52.9,29.54,SW,216,10.4,10.4,96,0.00,CLR,,0.00,WeatherDisplay:10.37,2013-03-20 05:22:00,
2013-03-20 06:27:00,54.1,53.0,29.54,West,260,13.8,13.8,96,0.00,CLR,,0.00,WeatherDisplay:10.37,2013-03-20 05:27:00,
2013-03-20 06:32:00,54.1,53.0,29.54,WSW,253,13.8,13.8,96,0.00,CLR,,0.00,WeatherDisplay:10.37,2013-03-20 05:32:00,
2013-03-20 06:37:00,54.2,53.1,29.54,SW,235,11.5,11.5,96,0.00,CLR,,0.00,WeatherDisplay:10.37,2013-03-20 05:37:00,
2013-03-20 06:42:00,54.2,53.1,29.54,WSW,244,13.0,13.0,96,0.00,CLR,,0.00,WeatherDisplay:10.37,2013-03-20 05:42:00,
2013-03-20 06:47:00,54.2,53.1,29.55,WSW,252,12.7,12.7,96,0.00,CLR,,0.00,WeatherDisplay:10.37,2013-03-20 05:47:00,
2013-03-20 06:52:00,54.2,53.1,29.55,WSW,241,12.7,12.7,96,0.00,CLR,,0.00,WeatherDisplay:10.37,2013-03-20 05:52:00,
2013-03-20 06:57:00,54.2,53.1,29.55,WSW,245,13.8,13.8,96,0.00,CLR,,0.00,WeatherDisplay:10.37,2013-03-20 05:57:00,
2013-03-20 07:02:00,54.2,53.1,29.55,West,274,13.8,13.8,96,0.00,CLR,,0.00,WeatherDisplay:10.37,2013-03-20 06:02:00,
2013-03-20 07:07:00,54.2,53.1,29.55,West,269,13.8,13.8,96,0.00,CLR,,0.00,WeatherDisplay:10.37,2013-03-20 06:07:00,
2013-03-20 07:12:00,54.2,53.1,29.56,WSW,247,15.0,15.0,96,0.00,CLR,,0.00,WeatherDisplay:10.37,2013-03-20 06:12:00,
2013-03-20 07:17:00,54.3,53.2,29.56,West,278,17.0,17.0,96,0.00,CLR,,0.00,WeatherDisplay:10.37,2013-03-20 06:17:00,
2013-03-20 07:22:00,54.3,53.2,29.56,West,280,16.1,16.1,96,0.00,CLR,,0.00,WeatherDisplay:10.37,2013-03-20 06:22:00,
2013-03-20 07:27:00,54.3,53.2,29.56,West,264,13.8,13.8,96,0.00,CLR,,0.00,WeatherDisplay:10.37,2013-03-20 06:27:00,
2013-03-20 07:32:00,54.3,53.2,29.56,WSW,255,14.0,14.0,96,0.00,CLR,,0.00,WeatherDisplay:10.37,2013-03-20 06:32:00,
2013-03-20 07:37:00,54.4,53.3,29.57,West,268,16.1,16.1,96,0.00,CLR,,0.00,WeatherDisplay:10.37,2013-03-20 06:37:00,
2013-03-20 07:42:00,54.4,53.3,29.57,WNW,285,17.3,17.3,96,0.00,CLR,,0.00,WeatherDisplay:10.37,2013-03-20 06:42:00,
2013-03-20 07:47:00,54.4,53.3,29.57,WSW,245,19.6,19.6,96,0.00,CLR,,0.00,WeatherDisplay:10.37,2013-03-20 06:47:00,
2013-03-20 07:52:00,54.4,53.3,29.58,West,272,16.1,16.1,96,0.00,CLR,,0.00,WeatherDisplay:10.37,2013-03-20 06:52:00,
2013-03-20 07:57:00,54.4,53.3,29.58,West,269,17.3,17.3,96,0.00,CLR,,0.00,WeatherDisplay:10.37,2013-03-20 06:57:00,
2013-03-20 08:02:00,54.4,53.3,29.58,West,275,15.0,15.0,96,0.00,CLR,,0.00,WeatherDisplay:10.37,2013-03-20 07:02:00,
2013-03-20 08:07:00,54.3,53.2,29.58,West,263,12.7,12.7,96,0.00,CLR,,0.00,WeatherDisplay:10.37,2013-03-20 07:07:00,
2013-03-20 08:12:00,54.4,53.3,29.58,WSW,237,16.1,16.1,96,0.00,CLR,,0.00,WeatherDisplay:10.37,2013-03-20 07:12:00,
2013-03-20 08:17:00,54.5,53.4,29.58,West,268,13.8,13.8,96,0.00,CLR,,0.00,WeatherDisplay:10.37,2013-03-20 07:17:00,
2013-03-20 08:22:00,54.6,53.5,29.59,SSW,199,15.0,15.0,96,0.00,CLR,,0.00,WeatherDisplay:10.37,2013-03-20 07:22:00,
2013-03-20 08:27:00,54.8,53.7,29.59,WNW,295,15.0,15.0,96,0.00,CLR,,0.00,WeatherDisplay:10.37,2013-03-20 07:27:00,
2013-03-20 08:32:00,54.9,53.8,29.59,WNW,291,16.1,16.1,96,0.00,CLR,,0.00,WeatherDisplay:10.37,2013-03-20 07:32:00,
2013-03-20 08:37:00,55.2,54.1,29.59,West,261,11.5,11.5,96,0.00,CLR,,0.00,WeatherDisplay:10.37,2013-03-20 07:37:00,
2013-03-20 08:42:00,55.2,53.8,29.59,WSW,255,15.0,15.0,95,0.00,CLR,,0.00,WeatherDisplay:10.37,2013-03-20 07:42:00,
2013-03-20 08:47:00,54.6,53.2,29.60,WNW,297,18.4,18.4,95,0.00,CLR,,0.00,WeatherDisplay:10.37,2013-03-20 07:47:00,
2013-03-20 08:52:00,54.6,53.2,29.60,WNW,296,19.6,19.6,95,0.00,CLR,,0.00,WeatherDisplay:10.37,2013-03-20 07:52:00,
2013-03-20 08:57:00,54.7,53.6,29.60,West,269,15.0,15.0,96,0.00,CLR,,0.00,WeatherDisplay:10.37,2013-03-20 07:57:00,
2013-03-20 09:02:00,54.6,53.2,29.61,NW,314,13.8,13.8,95,0.00,CLR,,0.00,WeatherDisplay:10.37,2013-03-20 08:02:00,
2013-03-20 09:07:00,54.7,53.3,29.61,West,272,13.8,13.8,95,0.00,CLR,,0.00,WeatherDisplay:10.37,2013-03-20 08:07:00,
2013-03-20 09:13:00,54.9,53.5,29.61,West,275,9.2,9.2,95,0.00,CLR,,0.00,WeatherDisplay:10.37,2013-03-20 08:13:00,
2013-03-20 09:18:00,54.9,53.5,29.61,NNW,342,13.0,13.0,95,0.00,CLR,,0.00,WeatherDisplay:10.37,2013-03-20 08:18:00,
2013-03-20 09:23:00,55.1,53.7,29.61,NNW,327,10.4,10.4,95,0.00,CLR,,0.00,WeatherDisplay:10.37,2013-03-20 08:23:00,
2013-03-20 09:28:00,55.3,53.9,29.62,NNW,332,10.4,10.4,95,0.00,CLR,,0.00,WeatherDisplay:10.37,2013-03-20 08:28:00,
2013-03-20 09:33:00,55.9,54.5,29.62,West,272,7.0,7.0,95,0.00,CLR,,0.00,WeatherDisplay:10.37,2013-03-20 08:33:00,
2013-03-20 09:38:00,55.4,53.4,29.62,NNW,334,12.7,12.7,93,0.00,CLR,,0.00,WeatherDisplay:10.37,2013-03-20 08:38:00,
2013-03-20 09:43:00,55.5,53.8,29.62,WNW,297,10.0,10.0,94,0.00,CLR,,0.00,WeatherDisplay:10.37,2013-03-20 08:43:00,
2013-03-20 09:48:00,55.3,53.3,29.63,SW,214,13.8,13.8,93,0.00,CLR,,0.00,WeatherDisplay:10.37,2013-03-20 08:48:00,
2013-03-20 09:53:00,55.6,53.3,29.63,NW,306,10.4,10.4,92,0.00,CLR,,0.00,WeatherDisplay:10.37,2013-03-20 08:53:00,
2013-03-20 09:58:00,56.2,53.6,29.63,WNW,303,6.9,6.9,91,0.00,CLR,,0.00,WeatherDisplay:10.37,2013-03-20 08:58:00,
2013-03-20 10:03:00,56.6,53.4,29.63,NW,319,11.5,11.5,89,0.00,CLR,,0.00,WeatherDisplay:10.37,2013-03-20 09:03:00,
2013-03-20 10:08:00,57.1,53.9,29.64,WNW,287,8.0,8.0,89,0.00,CLR,,0.00,WeatherDisplay:10.37,2013-03-20 09:08:00,
2013-03-20 10:13:00,57.1,53.3,29.64,NW,314,9.2,9.2,87,0.00,CLR,,0.00,WeatherDisplay:10.37,2013-03-20 09:13:00,
2013-03-20 10:18:00,56.6,52.5,29.65,North,359,6.9,6.9,86,0.00,CLR,,0.00,WeatherDisplay:10.37,2013-03-20 09:18:00,
2013-03-20 10:23:00,56.5,52.4,29.65,SSW,193,8.1,8.1,86,0.00,CLR,,0.00,WeatherDisplay:10.37,2013-03-20 09:23:00,
2013-03-20 10:28:00,56.5,52.4,29.65,NNW,347,6.9,6.9,86,0.00,CLR,,0.00,WeatherDisplay:10.37,2013-03-20 09:28:00,
2013-03-20 10:33:00,56.7,51.9,29.65,NNW,347,16.1,16.1,84,0.00,CLR,,0.00,WeatherDisplay:10.37,2013-03-20 09:33:00,
2013-03-20 10:38:00,56.9,52.1,29.65,NW,312,13.8,13.8,84,0.00,CLR,,0.00,WeatherDisplay:10.37,2013-03-20 09:38:00,
2013-03-20 10:43:00,56.9,52.1,29.66,North,350,15.0,15.0,84,0.00,CLR,,0.00,WeatherDisplay:10.37,2013-03-20 09:43:00,
2013-03-20 10:48:00,56.7,51.6,29.66,North,4,11.5,11.5,83,0.00,CLR,,0.00,WeatherDisplay:10.37,2013-03-20 09:48:00,
2013-03-20 10:53:00,56.8,51.7,29.67,NW,317,12.7,12.7,83,0.00,CLR,,0.00,WeatherDisplay:10.37,2013-03-20 09:53:00,
2013-03-20 10:58:00,57.1,51.3,29.67,North,359,15.0,15.0,81,0.00,CLR,,0.00,WeatherDisplay:10.37,2013-03-20 09:58:00,
2013-03-20 11:03:00,56.8,50.7,29.67,North,354,16.1,16.1,80,0.00,CLR,,0.00,WeatherDisplay:10.37,2013-03-20 10:03:00,
2013-03-20 11:08:00,56.6,50.5,29.67,NNW,342,17.3,17.3,80,0.00,CLR,,0.00,WeatherDisplay:10.37,2013-03-20 10:08:00,
2013-03-20 11:13:00,56.8,50.4,29.68,North,11,19.6,19.6,79,0.00,CLR,,0.00,WeatherDisplay:10.37,2013-03-20 10:13:00,
2013-03-20 11:18:00,56.9,50.5,29.68,North,359,13.8,13.8,79,0.00,CLR,,0.00,WeatherDisplay:10.37,2013-03-20 10:18:00,
2013-03-20 11:23:00,57.1,50.0,29.68,NNW,343,19.0,19.0,77,0.00,CLR,,0.00,WeatherDisplay:10.37,2013-03-20 10:23:00,
2013-03-20 11:28:00,56.5,50.1,29.69,North,354,24.2,24.2,79,0.00,CLR,,0.00,WeatherDisplay:10.37,2013-03-20 10:28:00,
2013-03-20 11:33:00,56.3,49.9,29.69,NNW,328,23.0,23.0,79,0.00,CLR,,0.00,WeatherDisplay:10.37,2013-03-20 10:33:00,
2013-03-20 11:38:00,56.3,50.5,29.70,WNW,299,16.1,16.1,81,0.00,CLR,,0.00,WeatherDisplay:10.37,2013-03-20 10:38:00,
2013-03-20 11:43:00,55.6,49.9,29.70,North,359,24.2,24.2,81,0.00,CLR,,0.00,WeatherDisplay:10.37,2013-03-20 10:43:00,
2013-03-20 11:48:00,55.2,50.1,29.70,North,4,25.3,25.3,83,0.00,CLR,,0.00,WeatherDisplay:10.37,2013-03-20 10:48:00,
2013-03-20 11:53:00,55.3,50.2,29.71,NW,324,21.0,21.0,83,0.00,CLR,,0.00,WeatherDisplay:10.37,2013-03-20 10:53:00,
2013-03-20 11:58:00,55.4,50.0,29.71,NNW,338,25.3,25.3,82,0.00,CLR,,0.00,WeatherDisplay:10.37,2013-03-20 10:58:00,
2013-03-20 12:03:00,55.8,50.1,29.71,North,359,25.3,25.3,81,0.00,CLR,,0.00,WeatherDisplay:10.37,2013-03-20 11:03:00,
2013-03-20 12:08:00,55.1,50.0,29.71,NNW,333,20.7,20.7,83,0.00,CLR,,0.00,WeatherDisplay:10.37,2013-03-20 11:08:00,
2013-03-20 12:13:00,54.7,49.6,29.72,North,349,24.0,24.0,83,0.00,CLR,,0.00,WeatherDisplay:10.37,2013-03-20 11:13:00,
2013-03-20 12:18:00,54.9,49.8,29.73,North,359,24.0,24.0,83,0.00,CLR,,0.00,WeatherDisplay:10.37,2013-03-20 11:18:00,
2013-03-20 12:23:00,54.5,49.4,29.73,NNW,332,20.7,20.7,83,0.00,CLR,,0.00,WeatherDisplay:10.37,2013-03-20 11:23:00,
2013-03-20 12:28:00,54.3,49.2,29.73,North,349,26.5,26.5,83,0.00,CLR,,0.00,WeatherDisplay:10.37,2013-03-20 11:28:00,
2013-03-20 12:33:00,54.2,49.1,29.73,North,354,24.2,24.2,83,0.00,CLR,,0.00,WeatherDisplay:10.37,2013-03-20 11:33:00,
2013-03-20 12:38:00,54.2,48.8,29.74,North,4,25.3,25.3,82,0.00,CLR,,0.00,WeatherDisplay:10.37,2013-03-20 11:38:00,
2013-03-20 12:43:00,54.2,49.1,29.74,North,359,19.6,19.6,83,0.00,CLR,,0.00,WeatherDisplay:10.37,2013-03-20 11:43:00,
2013-03-20 12:48:00,54.0,49.0,29.74,NNW,343,27.6,27.6,83,0.00,CLR,,0.00,WeatherDisplay:10.37,2013-03-20 11:48:00,
2013-03-20 12:53:00,54.1,49.4,29.75,North,354,17.3,17.3,84,0.00,CLR,,0.00,WeatherDisplay:10.37,2013-03-20 11:53:00,
2013-03-20 12:58:00,54.2,49.1,29.75,NNE,22,18.4,18.4,83,0.00,CLR,,0.00,WeatherDisplay:10.37,2013-03-20 11:58:00,
2013-03-20 13:03:00,54.4,49.0,29.75,NNW,338,19.6,19.6,82,0.00,CLR,,0.00,WeatherDisplay:10.37,2013-03-20 12:03:00,
2013-03-20 13:08:00,54.3,48.9,29.75,NNW,345,23.0,23.0,82,0.00,CLR,,0.00,WeatherDisplay:10.37,2013-03-20 12:08:00,
2013-03-20 13:13:00,53.9,48.2,29.75,North,4,26.5,26.5,81,0.00,CLR,,0.00,WeatherDisplay:10.37,2013-03-20 12:13:00,
2013-03-20 13:18:00,53.9,47.9,29.76,NNE,12,26.5,26.5,80,0.00,CLR,,0.00,WeatherDisplay:10.37,2013-03-20 12:18:00,
2013-03-20 13:23:00,53.9,47.9,29.77,NNW,341,25.0,25.0,80,0.00,CLR,,0.00,WeatherDisplay:10.37,2013-03-20 12:23:00,
2013-03-20 13:28:00,53.5,47.8,29.77,North,354,31.1,31.1,81,0.00,CLR,,0.00,WeatherDisplay:10.37,2013-03-20 12:28:00,
2013-03-20 13:33:00,53.2,46.9,29.77,North,359,26.5,26.5,79,0.00,CLR,,0.00,WeatherDisplay:10.37,2013-03-20 12:33:00,
2013-03-20 13:38:00,53.1,46.8,29.78,NNE,32,25.3,25.3,79,0.00,CLR,,0.00,WeatherDisplay:10.37,2013-03-20 12:38:00,
2013-03-20 13:43:00,53.2,47.2,29.78,NNE,18,19.6,19.6,80,0.00,CLR,,0.00,WeatherDisplay:10.37,2013-03-20 12:43:00,
2013-03-20 13:48:00,53.1,47.1,29.78,NNW,336,24.2,24.2,80,0.00,CLR,,0.00,WeatherDisplay:10.37,2013-03-20 12:48:00,
2013-03-20 13:53:00,53.2,47.2,29.78,North,8,31.1,31.1,80,0.00,CLR,,0.00,WeatherDisplay:10.37,2013-03-20 12:53:00,
2013-03-20 13:58:00,53.2,46.9,29.78,NW,322,24.2,24.2,79,0.00,CLR,,0.00,WeatherDisplay:10.37,2013-03-20 12:58:00,
2013-03-20 14:03:00,53.3,47.3,29.78,NW,322,26.5,26.5,80,0.00,CLR,,0.00,WeatherDisplay:10.37,2013-03-20 13:03:00,
2013-03-20 14:08:00,53.5,47.5,29.78,NNW,347,24.2,24.2,80,0.00,CLR,,0.00,WeatherDisplay:10.37,2013-03-20 13:08:00,
2013-03-20 14:13:00,53.5,47.5,29.79,North,359,26.5,26.5,80,0.00,CLR,,0.00,WeatherDisplay:10.37,2013-03-20 13:13:00,
2013-03-20 14:19:00,53.3,47.3,29.79,NNW,347,24.2,24.2,80,0.00,CLR,,0.00,WeatherDisplay:10.37,2013-03-20 13:19:00,
2013-03-20 14:24:00,52.9,46.6,29.79,North,354,27.6,27.6,79,0.00,CLR,,0.00,WeatherDisplay:10.37,2013-03-20 13:24:00,
2013-03-20 14:29:00,52.8,46.8,29.79,NNW,343,19.6,19.6,80,0.00,CLR,,0.00,WeatherDisplay:10.37,2013-03-20 13:29:00,
2013-03-20 14:34:00,53.0,46.7,29.80,NNW,341,20.7,20.7,79,0.00,CLR,,0.00,WeatherDisplay:10.37,2013-03-20 13:34:00,
2013-03-20 14:39:00,53.2,47.2,29.80,North,354,18.4,18.4,80,0.00,CLR,,0.00,WeatherDisplay:10.37,2013-03-20 13:39:00,
2013-03-20 14:44:00,53.5,47.8,29.80,North,4,19.6,19.6,81,0.00,CLR,,0.00,WeatherDisplay:10.37,2013-03-20 13:44:00,
2013-03-20 14:49:00,53.5,47.8,29.80,NNW,340,17.3,17.3,81,0.00,CLR,,0.00,WeatherDisplay:10.37,2013-03-20 13:49:00,
2013-03-20 14:54:00,53.7,48.0,29.80,North,359,17.0,17.0,81,0.00,CLR,,0.00,WeatherDisplay:10.37,2013-03-20 13:54:00,
2013-03-20 14:59:00,54.1,48.1,29.81,North,4,12.7,12.7,80,0.00,CLR,,0.00,WeatherDisplay:10.37,2013-03-20 13:59:00,
2013-03-20 15:04:00,54.2,46.8,29.81,North,354,25.3,25.3,76,0.00,CLR,,0.00,WeatherDisplay:10.37,2013-03-20 14:04:00,
2013-03-20 15:09:00,54.2,46.4,29.81,NNW,332,26.5,26.5,75,0.00,CLR,,0.00,WeatherDisplay:10.37,2013-03-20 14:09:00,
2013-03-20 15:14:00,54.3,46.2,29.81,NNE,16,23.0,23.0,74,0.00,CLR,,0.00,WeatherDisplay:10.37,2013-03-20 14:14:00,
2013-03-20 15:19:00,54.6,46.5,29.81,NNW,347,26.5,26.5,74,0.00,CLR,,0.00,WeatherDisplay:10.37,2013-03-20 14:19:00,
2013-03-20 15:24:00,54.7,45.5,29.81,North,4,27.6,27.6,71,0.00,CLR,,0.00,WeatherDisplay:10.37,2013-03-20 14:24:00,
2013-03-20 15:29:00,54.7,45.8,29.82,NE,37,17.3,17.3,72,0.00,CLR,,0.00,WeatherDisplay:10.37,2013-03-20 14:29:00,
2013-03-20 15:34:00,55.0,46.5,29.83,NE,41,10.4,10.4,73,0.00,CLR,,0.00,WeatherDisplay:10.37,2013-03-20 14:34:00,
2013-03-20 15:39:00,55.1,46.2,29.83,North,4,19.6,19.6,72,0.00,CLR,,0.00,WeatherDisplay:10.37,2013-03-20 14:39:00,
2013-03-20 15:44:00,55.3,46.4,29.83,North,359,17.3,17.3,72,0.00,CLR,,0.00,WeatherDisplay:10.37,2013-03-20 14:44:00,
2013-03-20 15:49:00,55.4,45.4,29.83,North,359,19.6,19.6,69,0.00,CLR,,0.00,WeatherDisplay:10.37,2013-03-20 14:49:00,
2013-03-20 15:54:00,55.8,45.8,29.84,North,350,13.8,13.8,69,0.00,CLR,,0.00,WeatherDisplay:10.37,2013-03-20 14:54:00,
2013-03-20 15:59:00,56.0,46.0,29.84,North,349,13.8,13.8,69,0.00,CLR,,0.00,WeatherDisplay:10.37,2013-03-20 14:59:00,
2013-03-20 16:04:00,56.0,45.6,29.84,North,354,19.6,19.6,68,0.00,CLR,,0.00,WeatherDisplay:10.37,2013-03-20 15:04:00,
2013-03-20 16:09:00,55.9,45.9,29.85,North,359,19.6,19.6,69,0.00,CLR,,0.00,WeatherDisplay:10.37,2013-03-20 15:09:00,
2013-03-20 16:14:00,56.1,46.1,29.85,NNE,16,13.8,13.8,69,0.00,CLR,,0.00,WeatherDisplay:10.37,2013-03-20 15:14:00,
2013-03-20 16:19:00,56.3,45.9,29.86,North,4,17.0,17.0,68,0.00,CLR,,0.00,WeatherDisplay:10.37,2013-03-20 15:19:00,
2013-03-20 16:24:00,55.9,45.1,29.86,NNW,341,13.8,13.8,67,0.00,CLR,,0.00,WeatherDisplay:10.37,2013-03-20 15:24:00,
2013-03-20 16:29:00,55.6,45.2,29.86,NE,37,13.8,13.8,68,0.00,CLR,,0.00,WeatherDisplay:10.37,2013-03-20 15:29:00,
2013-03-20 16:34:00,55.8,45.4,29.86,NE,45,8.1,8.1,68,0.00,CLR,,0.00,WeatherDisplay:10.37,2013-03-20 15:34:00,
2013-03-20 16:39:00,56.0,44.8,29.87,NE,48,13.8,13.8,66,0.00,CLR,,0.00,WeatherDisplay:10.37,2013-03-20 15:39:00,
2013-03-20 16:44:00,55.8,43.4,29.87,NNE,29,12.7,12.7,63,0.00,CLR,,0.00,WeatherDisplay:10.37,2013-03-20 15:44:00,
2013-03-20 16:49:00,56.2,42.9,29.87,East,85,10.4,10.4,61,0.00,CLR,,0.00,WeatherDisplay:10.37,2013-03-20 15:49:00,
2013-03-20 16:54:00,56.0,42.7,29.88,NE,43,16.1,16.1,61,0.00,CLR,,0.00,WeatherDisplay:10.37,2013-03-20 15:54:00,
2013-03-20 16:59:00,56.0,43.6,29.88,NE,36,15.0,15.0,63,0.00,CLR,,0.00,WeatherDisplay:10.37,2013-03-20 15:59:00,
2013-03-20 17:04:00,55.8,43.8,29.89,North,4,17.3,17.3,64,0.00,CLR,,0.00,WeatherDisplay:10.37,2013-03-20 16:04:00,
2013-03-20 17:09:00,55.8,43.8,29.89,NNE,26,16.1,16.1,64,0.00,CLR,,0.00,WeatherDisplay:10.37,2013-03-20 16:09:00,
2013-03-20 17:14:00,55.6,43.6,29.89,ENE,70,16.1,16.1,64,0.00,CLR,,0.00,WeatherDisplay:10.37,2013-03-20 16:14:00,
2013-03-20 17:19:00,55.3,43.3,29.90,ENE,58,15.0,15.0,64,0.00,CLR,,0.00,WeatherDisplay:10.37,2013-03-20 16:19:00,
2013-03-20 17:24:00,55.1,43.1,29.90,NNE,18,12.0,12.0,64,0.00,CLR,,0.00,WeatherDisplay:10.37,2013-03-20 16:24:00,
2013-03-20 17:29:00,55.0,43.4,29.90,NE,37,14.0,14.0,65,0.00,CLR,,0.00,WeatherDisplay:10.37,2013-03-20 16:29:00,
2013-03-20 17:34:00,54.6,43.5,29.91,NE,53,15.0,15.0,66,0.00,CLR,,0.00,WeatherDisplay:10.37,2013-03-20 16:34:00,
2013-03-20 17:39:00,54.3,42.8,29.91,ENE,65,11.0,11.0,65,0.00,CLR,,0.00,WeatherDisplay:10.37,2013-03-20 16:39:00,
2013-03-20 17:44:00,54.2,43.1,29.91,NNE,26,11.5,11.5,66,0.00,CLR,,0.00,WeatherDisplay:10.37,2013-03-20 16:44:00,
2013-03-20 17:49:00,54.0,42.9,29.92,NE,49,10.4,10.4,66,0.00,CLR,,0.00,WeatherDisplay:10.37,2013-03-20 16:49:00,
2013-03-20 17:54:00,53.8,42.7,29.92,NE,40,13.8,13.8,66,0.00,CLR,,0.00,WeatherDisplay:10.37,2013-03-20 16:54:00,
2013-03-20 17:59:00,53.8,43.1,29.93,NE,42,11.5,11.5,67,0.00,CLR,,0.00,WeatherDisplay:10.37,2013-03-20 16:59:00,
2013-03-20 18:04:00,53.8,43.1,29.93,NE,37,11.5,11.5,67,0.00,CLR,,0.00,WeatherDisplay:10.37,2013-03-20 17:04:00,
2013-03-20 18:09:00,54.1,43.4,29.94,NNE,24,7.0,7.0,67,0.00,CLR,,0.00,WeatherDisplay:10.37,2013-03-20 17:09:00,
2013-03-20 18:14:00,54.0,43.3,29.95,North,4,3.5,3.8,67,0.00,CLR,,0.00,WeatherDisplay:10.37,2013-03-20 17:14:00,
2013-03-20 18:19:00,54.1,43.8,29.95,North,4,6.9,6.9,68,0.00,CLR,,0.00,WeatherDisplay:10.37,2013-03-20 17:19:00,
2013-03-20 18:24:00,54.0,43.3,29.95,NE,42,9.2,9.2,67,0.00,CLR,,0.00,WeatherDisplay:10.37,2013-03-20 17:24:00,
2013-03-20 18:29:00,53.9,43.2,29.96,ENE,70,9.0,9.0,67,0.00,CLR,,0.00,WeatherDisplay:10.37,2013-03-20 17:29:00,
2013-03-20 18:34:00,53.8,43.1,29.96,NE,46,6.9,6.9,67,0.00,CLR,,0.00,WeatherDisplay:10.37,2013-03-20 17:34:00,
2013-03-20 18:39:00,53.8,43.1,29.97,NE,53,6.0,6.0,67,0.00,CLR,,0.00,WeatherDisplay:10.37,2013-03-20 17:39:00,
2013-03-20 18:44:00,53.6,42.9,29.97,North,4,9.2,9.2,67,0.00,CLR,,0.00,WeatherDisplay:10.37,2013-03-20 17:44:00,
2013-03-20 18:49:00,53.5,42.8,29.97,NE,35,8.1,8.1,67,0.00,CLR,,0.00,WeatherDisplay:10.37,2013-03-20 17:49:00,
2013-03-20 18:54:00,53.4,42.7,29.97,North,10,6.9,6.9,67,0.00,CLR,,0.00,WeatherDisplay:10.37,2013-03-20 17:54:00,
2013-03-20 18:59:00,53.2,42.9,29.97,North,11,4.6,4.6,68,0.00,CLR,,0.00,WeatherDisplay:10.37,2013-03-20 17:59:00,
2013-03-20 19:04:00,53.0,43.1,29.98,NNW,337,3.5,3.5,69,0.00,CLR,,0.00,WeatherDisplay:10.37,2013-03-20 18:04:00,
2013-03-20 19:09:00,52.9,43.4,29.98,North,349,5.8,5.8,70,0.00,CLR,,0.00,WeatherDisplay:10.37,2013-03-20 18:09:00,
2013-03-20 19:14:00,52.8,44.0,29.98,North,354,9.2,9.2,72,0.00,CLR,,0.00,WeatherDisplay:10.37,2013-03-20 18:14:00,
2013-03-20 19:19:00,52.7,44.3,29.98,North,350,8.1,8.1,73,0.00,CLR,,0.00,WeatherDisplay:10.37,2013-03-20 18:19:00,
2013-03-20 19:24:00,52.5,44.1,29.99,North,349,6.9,6.9,73,0.00,CLR,,0.00,WeatherDisplay:10.37,2013-03-20 18:24:00,
2013-03-20 19:29:00,52.4,44.4,29.99,North,354,6.0,6.0,74,0.00,CLR,,0.00,WeatherDisplay:10.37,2013-03-20 18:29:00,
2013-03-20 19:34:00,52.3,44.3,29.99,North,359,8.1,8.1,74,0.00,CLR,,0.00,WeatherDisplay:10.37,2013-03-20 18:34:00,
2013-03-20 19:39:00,52.2,44.2,29.99,NNE,16,4.6,4.6,74,0.00,CLR,,0.00,WeatherDisplay:10.37,2013-03-20 18:39:00,
2013-03-20 19:44:00,52.2,44.2,29.99,North,4,4.6,4.6,74,0.00,CLR,,0.00,WeatherDisplay:10.37,2013-03-20 18:44:00,
2013-03-20 19:49:00,52.1,44.1,30.00,NNE,31,4.6,4.6,74,0.00,CLR,,0.00,WeatherDisplay:10.37,2013-03-20 18:49:00,
2013-03-20 19:54:00,52.2,44.2,30.00,NE,54,4.6,4.6,74,0.00,CLR,,0.00,WeatherDisplay:10.37,2013-03-20 18:54:00,
2013-03-20 19:59:00,52.3,43.5,30.00,NE,40,6.0,6.0,72,0.00,CLR,,0.00,WeatherDisplay:10.37,2013-03-20 18:59:00,
2013-03-20 20:04:00,52.4,43.6,30.00,NNE,32,8.1,8.1,72,0.00,CLR,,0.00,WeatherDisplay:10.37,2013-03-20 19:04:00,
2013-03-20 20:09:00,52.3,43.5,30.00,NE,41,5.8,5.8,72,0.00,CLR,,0.00,WeatherDisplay:10.37,2013-03-20 19:09:00,
2013-03-20 20:14:00,52.2,43.4,30.00,NE,53,6.9,6.9,72,0.00,CLR,,0.00,WeatherDisplay:10.37,2013-03-20 19:14:00,
2013-03-20 20:19:00,52.3,43.5,30.01,ENE,66,6.9,6.9,72,0.00,CLR,,0.00,WeatherDisplay:10.37,2013-03-20 19:19:00,
2013-03-20 20:24:00,52.3,43.5,30.01,ENE,60,4.6,4.6,72,0.00,CLR,,0.00,WeatherDisplay:10.37,2013-03-20 19:24:00,
2013-03-20 20:29:00,52.2,43.4,30.01,NE,52,4.6,4.6,72,0.00,CLR,,0.00,WeatherDisplay:10.37,2013-03-20 19:29:00,
2013-03-20 20:34:00,52.2,43.4,30.02,NE,56,4.6,4.6,72,0.00,CLR,,0.00,WeatherDisplay:10.37,2013-03-20 19:34:00,
2013-03-20 20:39:00,52.2,43.4,30.02,NE,50,4.0,4.0,72,0.00,CLR,,0.00,WeatherDisplay:10.37,2013-03-20 19:39:00,
2013-03-20 20:44:00,52.2,43.4,30.02,NE,51,4.6,4.6,72,0.00,CLR,,0.00,WeatherDisplay:10.37,2013-03-20 19:44:00,
2013-03-20 20:49:00,52.2,43.4,30.03,ENE,60,4.6,4.6,72,0.00,CLR,,0.00,WeatherDisplay:10.37,2013-03-20 19:49:00,
2013-03-20 20:54:00,52.2,43.8,30.03,ENE,70,5.0,5.0,73,0.00,CLR,,0.00,WeatherDisplay:10.37,2013-03-20 19:54:00,
2013-03-20 20:59:00,52.2,43.8,30.03,ENE,62,4.0,4.0,73,0.00,CLR,,0.00,WeatherDisplay:10.37,2013-03-20 19:59:00,
2013-03-20 21:04:00,52.1,43.7,30.03,NE,52,4.6,4.6,73,0.00,CLR,,0.00,WeatherDisplay:10.37,2013-03-20 20:04:00,
2013-03-20 21:09:00,52.0,44.0,30.03,ENE,63,5.0,5.0,74,0.00,CLR,,0.00,WeatherDisplay:10.37,2013-03-20 20:09:00,
2013-03-20 21:14:00,52.1,44.1,30.03,ENE,75,5.8,5.8,74,0.00,CLR,,0.00,WeatherDisplay:10.37,2013-03-20 20:14:00,
2013-03-20 21:19:00,52.2,44.2,30.03,East,83,5.8,5.8,74,0.00,CLR,,0.00,WeatherDisplay:10.37,2013-03-20 20:19:00,
2013-03-20 21:24:00,52.1,44.1,30.04,East,96,5.8,5.8,74,0.00,CLR,,0.00,WeatherDisplay:10.37,2013-03-20 20:24:00,
2013-03-20 21:29:00,52.0,44.0,30.03,East,93,5.0,5.0,74,0.00,CLR,,0.00,WeatherDisplay:10.37,2013-03-20 20:29:00,
2013-03-20 21:34:00,52.0,44.0,30.04,East,98,4.6,4.6,74,0.00,CLR,,0.00,WeatherDisplay:10.37,2013-03-20 20:34:00,
2013-03-20 21:39:00,52.1,44.1,30.04,ESE,109,4.6,4.6,74,0.00,CLR,,0.00,WeatherDisplay:10.37,2013-03-20 20:39:00,
2013-03-20 21:44:00,52.2,44.2,30.04,East,95,3.5,3.5,74,0.00,CLR,,0.00,WeatherDisplay:10.37,2013-03-20 20:44:00,
2013-03-20 21:49:00,52.1,44.1,30.05,East,92,2.3,2.3,74,0.00,CLR,,0.00,WeatherDisplay:10.37,2013-03-20 20:49:00,
2013-03-20 21:54:00,52.1,44.1,30.05,East,100,3.5,3.5,74,0.00,CLR,,0.00,WeatherDisplay:10.37,2013-03-20 20:54:00,
2013-03-20 21:59:00,52.2,44.2,30.05,ESE,118,3.5,3.5,74,0.00,CLR,,0.00,WeatherDisplay:10.37,2013-03-20 20:59:00,
2013-03-20 22:04:00,52.2,44.2,30.05,ESE,121,3.5,3.5,74,0.00,CLR,,0.00,WeatherDisplay:10.37,2013-03-20 21:04:00,
2013-03-20 22:09:00,52.2,44.2,30.05,ESE,121,1.1,1.1,74,0.00,CLR,,0.00,WeatherDisplay:10.37,2013-03-20 21:09:00,
2013-03-20 22:14:00,52.1,44.1,30.06,SE,143,2.3,2.3,74,0.00,CLR,,0.00,WeatherDisplay:10.37,2013-03-20 21:14:00,
2013-03-20 22:19:00,52.1,44.1,30.06,SE,143,2.3,2.3,74,0.00,CLR,,0.00,WeatherDisplay:10.37,2013-03-20 21:19:00,
2013-03-20 22:24:00,52.1,44.1,30.06,SE,144,2.3,2.3,74,0.00,CLR,,0.00,WeatherDisplay:10.37,2013-03-20 21:24:00,
2013-03-20 22:29:00,52.2,44.2,30.06,SSE,166,1.1,1.1,74,0.00,CLR,,0.00,WeatherDisplay:10.37,2013-03-20 21:29:00,
2013-03-20 22:34:00,52.2,44.2,30.06,SSE,168,3.5,3.5,74,0.00,CLR,,0.00,WeatherDisplay:10.37,2013-03-20 21:34:00,
2013-03-20 22:39:00,52.2,44.2,30.06,South,184,4.6,4.6,74,0.00,CLR,,0.00,WeatherDisplay:10.37,2013-03-20 21:39:00,
2013-03-20 22:44:00,52.1,44.4,30.07,SSW,198,5.8,5.8,75,0.00,CLR,,0.00,WeatherDisplay:10.37,2013-03-20 21:44:00,
2013-03-20 22:49:00,52.0,44.3,30.07,SSE,161,4.6,4.6,75,0.00,CLR,,0.00,WeatherDisplay:10.37,2013-03-20 21:49:00,
2013-03-20 22:54:00,52.0,44.7,30.07,South,189,6.0,6.0,76,0.00,CLR,,0.00,WeatherDisplay:10.37,2013-03-20 21:54:00,
2013-03-20 22:59:00,52.0,44.7,30.07,South,189,6.0,6.0,76,0.00,CLR,,0.00,WeatherDisplay:10.37,2013-03-20 21:59:00,
2013-03-20 23:04:00,51.9,44.6,30.08,SSW,199,7.0,7.0,76,0.00,CLR,,0.00,WeatherDisplay:10.37,2013-03-20 22:04:00,
2013-03-20 23:09:00,51.9,44.6,30.08,SSW,206,6.9,6.9,76,0.00,CLR,,0.00,WeatherDisplay:10.37,2013-03-20 22:09:00,
2013-03-20 23:14:00,51.8,44.5,30.08,SSW,205,6.9,6.9,76,0.00,CLR,,0.00,WeatherDisplay:10.37,2013-03-20 22:14:00,
2013-03-20 23:19:00,51.8,44.5,30.08,SSW,202,8.1,8.1,76,0.00,CLR,,0.00,WeatherDisplay:10.37,2013-03-20 22:19:00,
2013-03-20 23:24:00,51.9,44.9,30.08,South,188,8.1,8.1,77,0.00,CLR,,0.00,WeatherDisplay:10.37,2013-03-20 22:24:00,
2013-03-20 23:29:00,51.8,45.2,30.08,South,174,8.0,8.0,78,0.00,CLR,,0.00,WeatherDisplay:10.37,2013-03-20 22:29:00,
2013-03-20 23:34:00,51.8,45.2,30.08,SSW,204,6.9,6.9,78,0.00,CLR,,0.00,WeatherDisplay:10.37,2013-03-20 22:34:00,
2013-03-20 23:39:00,51.6,45.0,30.08,SW,215,6.9,6.9,78,0.00,CLR,,0.00,WeatherDisplay:10.37,2013-03-20 22:39:00,
2013-03-20 23:44:00,51.5,45.2,30.08,SSW,210,6.9,6.9,79,0.00,CLR,,0.00,WeatherDisplay:10.37,2013-03-20 22:44:00,
2013-03-20 23:49:00,51.3,45.0,30.08,SW,223,8.1,8.1,79,0.00,CLR,,0.00,WeatherDisplay:10.37,2013-03-20 22:49:00,
2013-03-20 23:54:00,51.2,45.2,30.08,SW,225,8.1,8.1,80,0.00,CLR,,0.00,WeatherDisplay:10.37,2013-03-20 22:54:00,
2013-03-20 23:59:00,51.3,45.0,30.09,SW,216,8.1,8.1,79,0.00,CLR,,0.00,WeatherDisplay:10.37,2013-03-20 22:59:00,